Time;durP1;ratioP1;P1;durP2;ratioP2;P2;SDS_P1;SDS_P2;PMS_P1;PMS_P2;Temp;Humidity;BMP_temperature;BMP_pressure;BME280_temperature;BME280_humidity;BME280_pressure;Samples;Min_cycle;Max_cycle;Signal;HPM_P1;HPM_P2
2022/06/05 00:01:41;;;;;;;27.05;19.88;;;;;;;;;;5064664;28;21106;-68
2022/06/05 00:04:18;;;;;;;27.77;19.77;;;;;;;;;;5066534;28;20037;-68
2022/06/05 00:07:17;;;;;;;26.08;19.42;;;;;;;;;;5066586;28;20501;-68
2022/06/05 00:10:01;;;;;;;25.58;18.17;;;;;;;;;;5060555;28;20049;-68
2022/06/05 00:12:48;;;;;;;29.27;19.92;;;;;;;;;;5054055;28;20158;-68
2022/06/05 00:15:14;;;;;;;26.55;18.77;;;;;;;;;;5047896;28;20095;-68
2022/06/05 00:17:39;;;;;;;28.17;19.73;;;;;;;;;;5057738;28;20071;-69
2022/06/05 00:20:07;;;;;;;26.20;19.45;;;;;;;;;;5062356;28;20536;-68
2022/06/05 00:22:33;;;;;;;27.85;20.20;;;;;;;;;;5054480;28;20037;-68
2022/06/05 00:24:58;;;;;;;29.08;18.95;;;;;;;;;;5064607;28;20029;-68
2022/06/05 00:27:42;;;;;;;26.08;19.27;;;;;;;;;;5066540;28;20017;-68
2022/06/05 00:30:32;;;;;;;29.08;19.67;;;;;;;;;;5065908;28;20135;-68
2022/06/05 00:33:07;;;;;;;27.80;20.23;;;;;;;;;;5067977;28;20055;-68
2022/06/05 00:35:46;;;;;;;28.55;20.73;;;;;;;;;;5063884;28;20048;-68
2022/06/05 00:38:39;;;;;;;25.70;19.00;;;;;;;;;;5063296;28;20524;-68
2022/06/05 00:41:28;;;;;;;30.63;21.00;;;;;;;;;;5061150;28;20037;-68
2022/06/05 00:43:58;;;;;;;28.10;19.75;;;;;;;;;;5057173;28;20045;-68
2022/06/05 00:46:24;;;;;;;27.67;20.08;;;;;;;;;;5065576;28;20064;-68
2022/06/05 00:48:49;;;;;;;31.05;20.63;;;;;;;;;;5066420;28;20113;-68
2022/06/05 00:51:15;;;;;;;29.58;20.38;;;;;;;;;;5067015;28;20028;-68
2022/06/05 00:53:40;;;;;;;29.50;21.08;;;;;;;;;;5066121;28;20037;-68
2022/06/05 00:56:10;;;;;;;29.08;21.10;;;;;;;;;;5065196;28;20644;-68
2022/06/05 00:58:35;;;;;;;30.10;20.55;;;;;;;;;;5064149;28;20025;-68
2022/06/05 01:01:01;;;;;;;29.30;21.33;;;;;;;;;;5064467;28;20032;-68
2022/06/05 01:03:27;;;;;;;29.27;20.38;;;;;;;;;;5066386;28;20047;-67
2022/06/05 01:05:52;;;;;;;27.73;19.90;;;;;;;;;;5066133;28;20040;-68
2022/06/05 01:08:17;;;;;;;28.17;19.23;;;;;;;;;;5065691;28;20132;-68
2022/06/05 01:10:52;;;;;;;28.27;19.85;;;;;;;;;;5063555;28;20079;-68
2022/06/05 01:13:47;;;;;;;29.35;20.58;;;;;;;;;;5072281;28;20113;-68
2022/06/05 01:16:13;;;;;;;30.55;21.27;;;;;;;;;;5064332;28;20044;-67
2022/06/05 01:18:44;;;;;;;30.30;20.67;;;;;;;;;;5054355;28;20028;-68
2022/06/05 01:21:28;;;;;;;29.45;21.25;;;;;;;;;;5062444;28;20040;-68
2022/06/05 01:24:33;;;;;;;30.63;21.52;;;;;;;;;;5063939;28;20060;-68
2022/06/05 01:27:01;;;;;;;28.00;21.00;;;;;;;;;;5061932;28;20040;-68
2022/06/05 01:29:41;;;;;;;31.15;22.05;;;;;;;;;;5063887;28;20037;-68
2022/06/05 01:32:11;;;;;;;30.45;21.35;;;;;;;;;;5063373;28;20171;-68
2022/06/05 01:34:43;;;;;;;30.90;22.17;;;;;;;;;;5056306;28;20414;-68
2022/06/05 01:37:12;;;;;;;33.63;21.90;;;;;;;;;;5064313;28;20029;-68
2022/06/05 01:40:03;;;;;;;30.50;21.75;;;;;;;;;;5066161;28;20024;-68
2022/06/05 01:42:51;;;;;;;32.78;21.45;;;;;;;;;;5086674;28;20837;-68
2022/06/05 01:45:22;;;;;;;30.15;20.98;;;;;;;;;;5063992;28;20069;-68
2022/06/05 01:47:52;;;;;;;26.38;19.35;;;;;;;;;;5065109;28;20039;-68
2022/06/05 01:50:26;;;;;;;30.13;20.63;;;;;;;;;;5053675;28;20044;-68
2022/06/05 01:53:05;;;;;;;;;;;;;;;;;;5061714;28;20049;-68
2022/06/05 01:55:43;;;;;;;27.60;19.42;;;;;;;;;;5064705;28;19931;-67
2022/06/05 01:58:12;;;;;;;29.20;19.90;;;;;;;;;;5060812;28;20044;-67
2022/06/05 02:00:38;;;;;;;29.13;19.58;;;;;;;;;;5063179;28;20445;-68
2022/06/05 02:03:11;;;;;;;28.77;19.10;;;;;;;;;;5065386;28;20067;-68
2022/06/05 02:05:43;;;;;;;28.27;19.25;;;;;;;;;;5060885;28;20464;-67
2022/06/05 02:08:18;;;;;;;26.60;18.70;;;;;;;;;;5055607;28;20667;-68
2022/06/05 02:10:43;;;;;;;28.70;18.23;;;;;;;;;;5060685;28;20518;-68
2022/06/05 02:13:08;;;;;;;27.08;19.80;;;;;;;;;;5068922;28;20066;-68
2022/06/05 02:15:34;;;;;;;29.40;19.13;;;;;;;;;;5086356;28;20036;-67
2022/06/05 02:18:00;;;;;;;23.42;18.25;;;;;;;;;;5063622;28;20029;-67
2022/06/05 02:20:26;;;;;;;26.77;18.27;;;;;;;;;;5060568;28;20533;-68
2022/06/05 02:22:52;;;;;;;25.98;17.52;;;;;;;;;;5063171;28;20072;-67
2022/06/05 02:25:21;;;;;;;23.65;17.40;;;;;;;;;;5058936;28;20152;-67
2022/06/05 02:27:47;;;;;;;24.05;17.35;;;;;;;;;;5064859;28;20033;-67
2022/06/05 02:30:15;;;;;;;26.02;17.65;;;;;;;;;;5063356;28;20653;-67
2022/06/05 02:33:01;;;;;;;23.10;16.67;;;;;;;;;;5062480;28;20033;-67
2022/06/05 02:35:41;;;;;;;25.17;17.67;;;;;;;;;;5062973;28;20040;-68
2022/06/05 02:38:25;;;;;;;24.88;18.10;;;;;;;;;;5060216;28;20143;-67
2022/06/05 02:40:59;;;;;;;;;;;;;;;;;;5064460;28;20036;-67
2022/06/05 02:44:28;;;;;;;25.98;16.83;;;;;;;;;;5061703;28;19916;-67
2022/06/05 02:46:41;;;;;;;24.70;16.98;;;;;;;;;;5064444;28;20044;-67
2022/06/05 02:49:12;;;;;;;21.90;16.27;;;;;;;;;;5067620;28;20517;-68
2022/06/05 02:51:40;;;;;;;24.88;16.48;;;;;;;;;;5067225;28;20075;-67
2022/06/05 02:54:06;;;;;;;24.00;16.85;;;;;;;;;;5063212;28;20144;-67
2022/06/05 02:56:32;;;;;;;22.20;17.15;;;;;;;;;;5068565;28;20127;-67
2022/06/05 02:59:00;;;;;;;27.73;17.75;;;;;;;;;;5062701;28;20135;-68
2022/06/05 03:04:11;;;;;;;24.10;16.92;;;;;;;;;;5069129;28;20066;-67
2022/06/05 03:06:39;;;;;;;22.63;16.00;;;;;;;;;;5066400;28;20497;-68
2022/06/05 03:09:06;;;;;;;27.60;17.48;;;;;;;;;;5067478;28;20135;-68
2022/06/05 03:11:31;;;;;;;24.70;17.60;;;;;;;;;;5068355;28;20083;-67
2022/06/05 03:13:57;;;;;;;24.45;17.05;;;;;;;;;;5078512;28;20059;-68
2022/06/05 03:16:23;;;;;;;25.50;17.73;;;;;;;;;;5091172;28;20058;-68
2022/06/05 03:18:49;;;;;;;25.80;17.23;;;;;;;;;;5083150;28;20560;-67
2022/06/05 03:21:14;;;;;;;25.67;17.10;;;;;;;;;;5092037;28;20861;-68
2022/06/05 03:23:40;;;;;;;26.48;17.33;;;;;;;;;;5083467;28;20042;-67
2022/06/05 03:26:09;;;;;;;26.15;18.05;;;;;;;;;;5076056;28;20036;-67
2022/06/05 03:28:34;;;;;;;22.10;16.77;;;;;;;;;;5066843;28;20079;-67
2022/06/05 03:31:03;;;;;;;25.65;17.48;;;;;;;;;;5066550;28;20585;-67
2022/06/05 03:33:29;;;;;;;23.00;16.80;;;;;;;;;;5067128;28;20024;-67
2022/06/05 03:35:54;;;;;;;25.00;17.00;;;;;;;;;;5061899;28;20040;-68
2022/06/05 03:38:19;;;;;;;26.77;17.33;;;;;;;;;;5068643;28;20082;-67
2022/06/05 03:40:45;;;;;;;27.95;17.90;;;;;;;;;;5068727;28;20039;-67
2022/06/05 03:43:12;;;;;;;25.13;18.45;;;;;;;;;;5081031;28;20040;-67
2022/06/05 03:45:37;;;;;;;26.33;17.98;;;;;;;;;;5089228;28;20028;-67
2022/06/05 03:48:03;;;;;;;25.83;17.80;;;;;;;;;;5066043;28;20040;-67
2022/06/05 03:50:29;;;;;;;27.45;18.30;;;;;;;;;;5067052;28;20063;-67
2022/06/05 03:52:54;;;;;;;24.40;17.40;;;;;;;;;;5064594;28;20072;-67
2022/06/05 03:55:21;;;;;;;27.70;17.55;;;;;;;;;;5064673;28;20132;-67
2022/06/05 03:57:47;;;;;;;23.73;16.75;;;;;;;;;;5059248;28;20029;-67
2022/06/05 04:00:16;;;;;;;24.85;16.65;;;;;;;;;;5067728;28;20028;-67
2022/06/05 04:02:41;;;;;;;29.02;16.90;;;;;;;;;;5065260;28;20287;-67
2022/06/05 04:05:09;;;;;;;23.15;16.85;;;;;;;;;;5064715;28;20474;-67
2022/06/05 04:07:34;;;;;;;21.48;15.75;;;;;;;;;;5066543;28;20047;-68
2022/06/05 04:10:00;;;;;;;25.40;16.33;;;;;;;;;;5066898;28;20024;-67
2022/06/05 04:12:26;;;;;;;26.30;17.30;;;;;;;;;;5067221;28;20086;-67
2022/06/05 04:14:51;;;;;;;27.67;16.40;;;;;;;;;;5082163;28;21200;-67
2022/06/05 04:17:16;;;;;;;23.67;16.35;;;;;;;;;;5082177;28;20404;-67
2022/06/05 04:19:42;;;;;;;20.88;14.65;;;;;;;;;;5064086;28;20505;-67
2022/06/05 04:22:07;;;;;;;23.02;15.15;;;;;;;;;;5067020;28;20032;-67
2022/06/05 04:24:33;;;;;;;21.98;15.15;;;;;;;;;;5065829;28;20036;-67
2022/06/05 04:26:58;;;;;;;22.23;14.68;;;;;;;;;;5063999;28;20059;-68
2022/06/05 04:29:24;;;;;;;22.10;14.55;;;;;;;;;;5067099;28;20037;-67
2022/06/05 04:31:50;;;;;;;22.17;15.10;;;;;;;;;;5066888;28;20051;-67
2022/06/05 04:34:20;;;;;;;21.08;13.88;;;;;;;;;;5063513;28;20029;-67
2022/06/05 04:36:46;;;;;;;19.95;13.82;;;;;;;;;;5062236;28;20067;-67
2022/06/05 04:39:12;;;;;;;17.77;12.98;;;;;;;;;;5062139;28;20055;-67
2022/06/05 04:41:38;;;;;;;20.20;14.68;;;;;;;;;;5062060;28;20045;-67
2022/06/05 04:44:05;;;;;;;19.17;13.60;;;;;;;;;;5063061;28;20056;-67
2022/06/05 04:46:32;;;;;;;19.45;14.75;;;;;;;;;;5060934;28;20038;-67
2022/06/05 04:48:58;;;;;;;21.75;14.35;;;;;;;;;;5070573;28;20132;-67
2022/06/05 04:51:24;;;;;;;23.20;14.90;;;;;;;;;;5081370;28;20056;-67
2022/06/05 04:53:51;;;;;;;19.60;14.57;;;;;;;;;;5062105;28;20071;-67
2022/06/05 04:56:20;;;;;;;23.23;14.98;;;;;;;;;;5060743;28;20056;-67
2022/06/05 04:58:46;;;;;;;21.55;15.13;;;;;;;;;;5065685;28;20032;-67
2022/06/05 05:01:14;;;;;;;23.77;16.55;;;;;;;;;;5063717;28;20464;-67
2022/06/05 05:03:39;;;;;;;24.60;16.48;;;;;;;;;;5062056;28;20036;-67
2022/06/05 05:06:05;;;;;;;22.17;15.27;;;;;;;;;;5063040;28;20653;-67
2022/06/05 05:08:30;;;;;;;26.13;17.05;;;;;;;;;;5065427;28;20589;-67
2022/06/05 05:10:56;;;;;;;24.08;17.50;;;;;;;;;;5063946;28;20052;-67
2022/06/05 05:13:21;;;;;;;21.38;16.23;;;;;;;;;;5072578;28;20043;-67
2022/06/05 05:15:50;;;;;;;23.70;16.63;;;;;;;;;;5080615;28;20545;-67
2022/06/05 05:18:16;;;;;;;23.33;16.73;;;;;;;;;;5093376;28;20397;-67
2022/06/05 05:20:41;;;;;;;24.75;16.40;;;;;;;;;;5091753;28;20044;-67
2022/06/05 05:23:07;;;;;;;22.25;16.48;;;;;;;;;;5084207;28;20690;-67
2022/06/05 05:25:32;;;;;;;25.00;16.10;;;;;;;;;;5083837;28;20048;-67
2022/06/05 05:27:58;;;;;;;22.77;16.83;;;;;;;;;;5084559;28;20036;-67
2022/06/05 05:30:23;;;;;;;22.50;15.75;;;;;;;;;;5085058;28;20103;-67
2022/06/05 05:32:48;;;;;;;23.20;17.05;;;;;;;;;;5060501;28;20048;-67
2022/06/05 05:35:14;;;;;;;21.95;16.77;;;;;;;;;;5064770;28;20563;-67
2022/06/05 05:37:39;;;;;;;22.88;16.20;;;;;;;;;;5061696;28;20605;-67
2022/06/05 05:42:49;;;;;;;26.42;17.27;;;;;;;;;;5063755;28;20090;-67
2022/06/05 05:45:15;;;;;;;21.92;17.40;;;;;;;;;;5064371;28;20020;-67
2022/06/05 05:47:40;;;;;;;25.77;16.63;;;;;;;;;;5062116;28;20040;-67
2022/06/05 05:50:11;;;;;;;25.90;17.30;;;;;;;;;;5083209;28;20042;-67
2022/06/05 05:52:37;;;;;;;22.13;15.15;;;;;;;;;;5079295;28;20671;-67
2022/06/05 05:55:03;;;;;;;20.15;14.77;;;;;;;;;;5058707;28;20087;-67
2022/06/05 05:57:28;;;;;;;20.63;14.82;;;;;;;;;;5055205;28;20028;-67
2022/06/05 05:59:54;;;;;;;22.85;14.02;;;;;;;;;;5050422;28;20043;-67
2022/06/05 06:02:21;;;;;;;22.98;15.38;;;;;;;;;;5053262;28;20051;-67
2022/06/05 06:04:49;;;;;;;21.35;15.40;;;;;;;;;;5049395;28;20052;-67
2022/06/05 06:07:15;;;;;;;23.60;16.15;;;;;;;;;;5052830;28;20105;-67
2022/06/05 06:09:41;;;;;;;22.27;14.57;;;;;;;;;;5051472;28;20040;-67
2022/06/05 06:12:07;;;;;;;19.40;14.45;;;;;;;;;;5052639;28;20068;-67
2022/06/05 06:14:33;;;;;;;19.65;14.57;;;;;;;;;;5054278;28;20167;-67
2022/06/05 06:16:58;;;;;;;18.10;13.88;;;;;;;;;;5052887;28;20041;-67
2022/06/05 06:19:24;;;;;;;19.13;14.65;;;;;;;;;;5052618;28;20040;-67
2022/06/05 06:21:49;;;;;;;20.25;15.07;;;;;;;;;;5051654;28;20492;-67
2022/06/05 06:24:15;;;;;;;20.20;15.00;;;;;;;;;;5057163;28;20144;-67
2022/06/05 06:26:41;;;;;;;21.90;15.88;;;;;;;;;;5056495;28;20579;-67
2022/06/05 06:29:07;;;;;;;22.58;15.68;;;;;;;;;;5059094;28;20040;-67
2022/06/05 06:31:35;;;;;;;21.40;16.27;;;;;;;;;;5057863;28;20093;-67
2022/06/05 06:34:01;;;;;;;20.63;15.70;;;;;;;;;;5057359;28;20035;-67
2022/06/05 06:36:27;;;;;;;24.35;16.42;;;;;;;;;;5057983;28;20043;-67
2022/06/05 06:38:52;;;;;;;24.70;16.45;;;;;;;;;;5055323;28;20044;-67
2022/06/05 06:41:18;;;;;;;24.90;16.23;;;;;;;;;;5060254;28;20668;-66
2022/06/05 06:43:45;;;;;;;26.30;17.65;;;;;;;;;;5056651;28;20086;-67
2022/06/05 06:46:11;;;;;;;25.83;18.27;;;;;;;;;;5063421;28;20037;-67
2022/06/05 06:48:37;;;;;;;26.17;18.75;;;;;;;;;;5063698;28;20041;-67
2022/06/05 06:51:04;;;;;;;31.27;21.05;;;;;;;;;;5065212;28;20039;-67
2022/06/05 06:53:31;;;;;;;32.00;20.63;;;;;;;;;;5063449;28;20146;-67
2022/06/05 06:55:57;;;;;;;28.02;20.05;;;;;;;;;;5057821;28;20036;-67
2022/06/05 06:58:22;;;;;;;27.92;19.30;;;;;;;;;;5059052;28;20122;-67
2022/06/05 07:00:48;;;;;;;27.88;20.35;;;;;;;;;;5061053;28;20032;-67
2022/06/05 07:03:13;;;;;;;28.23;19.60;;;;;;;;;;5060669;28;20021;-67
2022/06/05 07:05:40;;;;;;;34.10;20.17;;;;;;;;;;5064903;28;20040;-67
2022/06/05 07:08:06;;;;;;;29.23;19.95;;;;;;;;;;5061131;28;20083;-67
2022/06/05 07:10:31;;;;;;;27.90;19.17;;;;;;;;;;5057437;28;20040;-67
2022/06/05 07:12:57;;;;;;;26.58;19.88;;;;;;;;;;5062540;28;20069;-67
2022/06/05 07:15:22;;;;;;;25.60;18.88;;;;;;;;;;5062479;28;20032;-67
2022/06/05 07:17:47;;;;;;;25.25;19.00;;;;;;;;;;5061270;28;20421;-67
2022/06/05 07:20:13;;;;;;;30.05;19.70;;;;;;;;;;5061559;28;20207;-67
2022/06/05 07:22:39;;;;;;;29.45;20.42;;;;;;;;;;5057948;28;20501;-67
2022/06/05 07:25:05;;;;;;;32.88;21.23;;;;;;;;;;5063129;28;20033;-67
2022/06/05 07:27:30;;;;;;;27.48;19.40;;;;;;;;;;5055487;28;20032;-67
2022/06/05 07:29:56;;;;;;;30.83;21.13;;;;;;;;;;5065050;28;20063;-67
2022/06/05 07:32:21;;;;;;;29.95;21.60;;;;;;;;;;5055157;28;20048;-67
2022/06/05 07:34:47;;;;;;;27.20;19.52;;;;;;;;;;5059561;28;20036;-67
2022/06/05 07:37:13;;;;;;;28.90;19.98;;;;;;;;;;5063072;28;20032;-67
2022/06/05 07:39:39;;;;;;;29.77;20.73;;;;;;;;;;5063996;28;20035;-67
2022/06/05 07:42:06;;;;;;;27.88;20.05;;;;;;;;;;5059265;28;20086;-67
2022/06/05 07:44:32;;;;;;;29.15;19.25;;;;;;;;;;5059588;28;20134;-67
2022/06/05 07:46:57;;;;;;;30.30;21.73;;;;;;;;;;5058082;28;20502;-67
2022/06/05 07:49:22;;;;;;;29.50;20.95;;;;;;;;;;5061121;28;20044;-67
2022/06/05 07:54:33;;;;;;;33.10;21.13;;;;;;;;;;5052832;28;20615;-67
2022/06/05 07:57:09;;;;;;;32.33;22.40;;;;;;;;;;5048514;28;20043;-67
2022/06/05 07:59:42;;;;;;;30.05;20.98;;;;;;;;;;5056015;28;20033;-67
2022/06/05 08:02:13;;;;;;;30.35;20.73;;;;;;;;;;5055131;28;20032;-67
2022/06/05 08:04:40;;;;;;;33.55;20.90;;;;;;;;;;5055887;28;20422;-67
2022/06/05 08:07:07;;;;;;;32.80;20.88;;;;;;;;;;5055035;28;20020;-67
2022/06/05 08:09:34;;;;;;;31.13;22.20;;;;;;;;;;5058457;28;20028;-66
2022/06/05 08:12:00;;;;;;;31.42;21.58;;;;;;;;;;5058377;28;20036;-66
2022/06/05 08:14:27;;;;;;;32.05;21.08;;;;;;;;;;5057690;28;20402;-66
2022/06/05 08:16:53;;;;;;;31.08;20.92;;;;;;;;;;5053080;28;20071;-66
2022/06/05 08:19:22;;;;;;;33.28;20.83;;;;;;;;;;5061738;28;20032;-65
2022/06/05 08:21:48;;;;;;;32.70;21.48;;;;;;;;;;5059712;28;20128;-65
2022/06/05 08:24:14;;;;;;;28.63;21.15;;;;;;;;;;5067969;28;20547;-65
2022/06/05 08:26:40;;;;;;;29.77;20.88;;;;;;;;;;5059522;28;20136;-65
2022/06/05 08:29:06;;;;;;;27.40;20.40;;;;;;;;;;5065710;28;20800;-66
2022/06/05 08:31:33;;;;;;;30.63;21.25;;;;;;;;;;5063310;28;20041;-65
2022/06/05 08:33:58;;;;;;;33.78;23.95;;;;;;;;;;5067405;28;20052;-66
2022/06/05 08:36:25;;;;;;;40.50;26.00;;;;;;;;;;5058830;28;20529;-66
2022/06/05 08:42:01;;;;;;;30.13;20.73;;;;;;;;;;5061845;28;20401;-65
2022/06/05 08:44:56;;;;;;;32.40;21.20;;;;;;;;;;5059273;28;20120;-65
2022/06/05 08:47:29;;;;;;;28.83;21.40;;;;;;;;;;5058726;28;20535;-65
2022/06/05 08:50:22;;;;;;;28.33;20.88;;;;;;;;;;5058246;28;20640;-65
2022/06/05 08:52:50;;;;;;;29.35;21.27;;;;;;;;;;5060175;28;20425;-65
2022/06/05 08:55:31;;;;;;;29.65;21.38;;;;;;;;;;5061367;28;20036;-66
2022/06/05 08:58:16;;;;;;;34.78;21.55;;;;;;;;;;5056574;28;20082;-66
2022/06/05 09:00:50;;;;;;;32.38;21.65;;;;;;;;;;5063388;28;20020;-65
2022/06/05 09:03:21;;;;;;;28.45;19.48;;;;;;;;;;5059886;28;20040;-66
2022/06/05 09:05:51;;;;;;;27.75;16.05;;;;;;;;;;5061003;28;20120;-66
2022/06/05 09:08:20;;;;;;;32.35;16.85;;;;;;;;;;5050871;28;20047;-66
2022/06/05 09:10:55;;;;;;;35.45;17.90;;;;;;;;;;5064356;28;20613;-66
2022/06/05 09:13:36;;;;;;;25.02;14.57;;;;;;;;;;5059575;28;20580;-66
2022/06/05 09:16:04;;;;;;;25.38;14.80;;;;;;;;;;5055514;28;20397;-65
2022/06/05 09:18:36;;;;;;;19.95;12.88;;;;;;;;;;5054913;28;20104;-67
2022/06/05 09:21:05;;;;;;;16.60;11.55;;;;;;;;;;5057186;28;20068;-67
2022/06/05 09:24:00;;;;;;;6.35;3.47;;;;;;;;;;5070870;28;20123;-68
2022/06/05 09:26:25;;;;;;;12.75;7.45;;;;;;;;;;5066421;28;20047;-69
2022/06/05 09:28:50;;;;;;;10.57;6.32;;;;;;;;;;5057195;28;20707;-68
2022/06/05 09:31:24;;;;;;;14.90;10.82;;;;;;;;;;5057046;28;20413;-68
2022/06/05 09:33:54;;;;;;;17.58;9.98;;;;;;;;;;5057350;28;20508;-68
2022/06/05 09:36:23;;;;;;;16.58;10.10;;;;;;;;;;5064454;28;20033;-68
2022/06/05 09:38:55;;;;;;;16.73;11.68;;;;;;;;;;5059167;28;20063;-68
2022/06/05 09:41:29;;;;;;;21.55;13.32;;;;;;;;;;5053675;28;20059;-68
2022/06/05 09:44:11;;;;;;;15.68;11.48;;;;;;;;;;5068586;28;20530;-69
2022/06/05 09:47:01;;;;;;;21.45;14.32;;;;;;;;;;5073595;28;20024;-69
2022/06/05 09:49:45;;;;;;;27.92;17.20;;;;;;;;;;5075694;28;20037;-68
2022/06/05 09:52:14;;;;;;;34.30;20.65;;;;;;;;;;5062664;28;20040;-69
2022/06/05 09:54:44;;;;;;;46.00;28.40;;;;;;;;;;5063487;28;20757;-68
2022/06/05 10:00:53;;;;;;;52.85;31.20;;;;;;;;;;5068364;28;20094;-67
2022/06/05 10:03:22;;;;;;;56.10;31.33;;;;;;;;;;5063855;28;20037;-67
2022/06/05 10:06:26;;;;;;;52.15;30.25;;;;;;;;;;5068392;28;20100;-67
2022/06/05 10:09:09;;;;;;;59.85;30.95;;;;;;;;;;5065251;28;20106;-65
2022/06/05 10:11:50;;;;;;;64.93;31.33;;;;;;;;;;5066129;28;20119;-65
2022/06/05 10:14:50;;;;;;;47.72;27.77;;;;;;;;;;5063995;28;20078;-66
2022/06/05 10:17:31;;;;;;;56.85;30.67;;;;;;;;;;5062353;28;20040;-63
2022/06/05 10:20:15;;;;;;;61.92;34.30;;;;;;;;;;5059062;28;20056;-63
2022/06/05 10:22:46;;;;;;;69.32;35.05;;;;;;;;;;5062096;28;20035;-63
2022/06/05 10:25:24;;;;;;;63.47;33.88;;;;;;;;;;5058405;28;20041;-63
2022/06/05 10:27:55;;;;;;;69.10;36.65;;;;;;;;;;5062497;28;20020;-63
2022/06/05 10:30:29;;;;;;;61.55;33.03;;;;;;;;;;5065254;28;20032;-63
2022/06/05 10:33:02;;;;;;;67.20;35.88;;;;;;;;;;5067056;28;20072;-64
2022/06/05 10:35:58;;;;;;;64.90;35.08;;;;;;;;;;5064211;28;20119;-64
2022/06/05 10:38:32;;;;;;;70.20;37.03;;;;;;;;;;5064800;28;21194;-64
2022/06/05 10:41:30;;;;;;;68.18;35.42;;;;;;;;;;5069471;28;20097;-64
2022/06/05 10:44:22;;;;;;;78.03;36.95;;;;;;;;;;5069132;28;20040;-64
2022/06/05 10:46:51;;;;;;;81.10;37.10;;;;;;;;;;5060018;28;20099;-64
2022/06/05 10:49:42;;;;;;;73.60;37.75;;;;;;;;;;5063076;28;20093;-64
2022/06/05 10:52:15;;;;;;;76.28;37.88;;;;;;;;;;5065774;28;20032;-64
2022/06/05 10:54:50;;;;;;;;;;;;;;;;;;5064995;28;20079;-64
2022/06/05 10:57:32;;;;;;;63.03;33.38;;;;;;;;;;5066179;28;19927;-64
2022/06/05 11:00:14;;;;;;;64.47;34.17;;;;;;;;;;5064140;28;20094;-65
2022/06/05 11:02:50;;;;;;;65.88;35.30;;;;;;;;;;5059582;28;20044;-67
2022/06/05 11:05:52;;;;;;;65.65;35.45;;;;;;;;;;5059473;28;20044;-64
2022/06/05 11:08:23;;;;;;;61.95;34.97;;;;;;;;;;5060337;28;20056;-64
2022/06/05 11:14:12;;;;;;;61.88;33.38;;;;;;;;;;5058566;28;20098;-64
2022/06/05 11:16:55;;;;;;;70.40;35.38;;;;;;;;;;5061878;28;20506;-64
2022/06/05 11:19:42;;;;;;;66.07;35.38;;;;;;;;;;5061437;28;20521;-64
2022/06/05 11:22:14;;;;;;;59.95;35.20;;;;;;;;;;5059112;28;20051;-64
2022/06/05 11:24:46;;;;;;;60.90;34.25;;;;;;;;;;5060163;28;20029;-64
2022/06/05 11:27:22;;;;;;;61.00;34.83;;;;;;;;;;5063397;28;20036;-64
2022/06/05 11:30:10;;;;;;;63.17;33.67;;;;;;;;;;5061293;28;20040;-64
2022/06/05 11:33:13;;;;;;;67.72;36.20;;;;;;;;;;5061135;28;20044;-64
2022/06/05 11:35:53;;;;;;;60.55;35.90;;;;;;;;;;5060799;28;20045;-64
2022/06/05 11:38:21;;;;;;;64.95;36.67;;;;;;;;;;5063022;28;20501;-64
2022/06/05 11:40:57;;;;;;;62.83;36.85;;;;;;;;;;5056928;28;20078;-65
2022/06/05 11:43:26;;;;;;;69.72;38.17;;;;;;;;;;5058671;28;20052;-64
2022/06/05 11:46:01;;;;;;;66.85;38.55;;;;;;;;;;5060973;28;20025;-64
2022/06/05 11:48:31;;;;;;;65.13;38.00;;;;;;;;;;5059798;28;20514;-64
2022/06/05 11:51:23;;;;;;;64.15;38.60;;;;;;;;;;5064079;28;20592;-65
2022/06/05 11:54:13;;;;;;;63.03;37.60;;;;;;;;;;5061227;28;20037;-64
2022/06/05 11:57:06;;;;;;;56.67;35.95;;;;;;;;;;5057901;28;20044;-64
2022/06/05 11:59:39;;;;;;;57.65;34.85;;;;;;;;;;5057959;28;20036;-64
2022/06/05 12:02:07;;;;;;;57.58;35.47;;;;;;;;;;5057613;28;20684;-64
2022/06/05 12:04:42;;;;;;;61.40;36.83;;;;;;;;;;5061078;28;20056;-64
2022/06/05 12:07:12;;;;;;;56.30;35.25;;;;;;;;;;5061619;28;20089;-64
2022/06/05 12:09:55;;;;;;;59.70;35.90;;;;;;;;;;5065805;28;20032;-64
2022/06/05 12:12:24;;;;;;;55.25;35.13;;;;;;;;;;5063467;28;20086;-64
2022/06/05 12:15:06;;;;;;;50.65;32.30;;;;;;;;;;5061184;28;20045;-65
2022/06/05 12:18:00;;;;;;;50.53;32.35;;;;;;;;;;5056172;28;20044;-64
2022/06/05 12:20:46;;;;;;;49.22;32.35;;;;;;;;;;5060151;28;20055;-64
2022/06/05 12:23:29;;;;;;;43.67;28.42;;;;;;;;;;5061043;28;20460;-64
2022/06/05 12:26:01;;;;;;;38.75;26.45;;;;;;;;;;5059523;28;20032;-64
2022/06/05 12:28:31;;;;;;;36.65;25.55;;;;;;;;;;5061361;28;20109;-65
2022/06/05 12:31:04;;;;;;;29.33;20.90;;;;;;;;;;5066244;28;20159;-64
2022/06/05 12:33:38;;;;;;;27.60;19.73;;;;;;;;;;5050409;28;20120;-64
2022/06/05 12:36:06;;;;;;;;;;;;;;;;;;5061490;28;20153;-64
2022/06/05 12:38:41;;;;;;;31.02;21.40;;;;;;;;;;5058885;28;20371;-64
2022/06/05 12:41:25;;;;;;;29.00;18.95;;;;;;;;;;5058615;28;20181;-64
2022/06/05 12:43:57;;;;;;;26.42;18.58;;;;;;;;;;5057810;28;20489;-64
2022/06/05 12:46:33;;;;;;;28.67;20.50;;;;;;;;;;5063420;28;20037;-64
2022/06/05 12:49:24;;;;;;;27.25;18.85;;;;;;;;;;5055608;28;20024;-65
2022/06/05 12:52:24;;;;;;;24.30;17.45;;;;;;;;;;5057305;28;20044;-65
2022/06/05 12:55:06;;;;;;;23.15;16.90;;;;;;;;;;5060324;28;20020;-65
2022/06/05 12:57:49;;;;;;;21.05;15.82;;;;;;;;;;5082091;28;20043;-64
2022/06/05 13:00:36;;;;;;;21.30;15.75;;;;;;;;;;5058509;28;20037;-64
2022/06/05 13:03:17;;;;;;;17.48;13.65;;;;;;;;;;5062302;28;20064;-64
2022/06/05 13:05:50;;;;;;;22.15;15.48;;;;;;;;;;5059754;28;20056;-65
2022/06/05 13:08:30;;;;;;;19.17;13.10;;;;;;;;;;5057334;28;20098;-64
2022/06/05 13:11:14;;;;;;;18.85;13.35;;;;;;;;;;5057260;28;20039;-65
2022/06/05 13:13:52;;;;;;;16.08;12.13;;;;;;;;;;5056362;28;20040;-65
2022/06/05 13:16:28;;;;;;;15.40;10.85;;;;;;;;;;5051756;28;20037;-65
2022/06/05 13:19:15;;;;;;;14.07;10.77;;;;;;;;;;5059607;28;20071;-65
2022/06/05 13:21:47;;;;;;;11.85;8.60;;;;;;;;;;5063225;28;20052;-64
2022/06/05 13:24:25;;;;;;;13.93;8.35;;;;;;;;;;5058377;28;20123;-65
2022/06/05 13:27:25;;;;;;;11.05;8.10;;;;;;;;;;5059322;28;20570;-65
2022/06/05 13:30:08;;;;;;;9.38;7.30;;;;;;;;;;5052765;28;20040;-65
2022/06/05 13:32:55;;;;;;;9.02;6.13;;;;;;;;;;5057701;28;20055;-65
2022/06/05 13:35:29;;;;;;;8.20;5.97;;;;;;;;;;5060686;28;20028;-65
2022/06/05 13:38:25;;;;;;;6.32;5.50;;;;;;;;;;5061344;28;20686;-65
2022/06/05 13:40:59;;;;;;;7.68;5.75;;;;;;;;;;5058124;28;20040;-65
2022/06/05 13:43:28;;;;;;;6.40;5.43;;;;;;;;;;5062354;28;20047;-65
2022/06/05 13:45:56;;;;;;;7.75;5.03;;;;;;;;;;5057791;28;20036;-65
2022/06/05 13:48:38;;;;;;;5.93;4.40;;;;;;;;;;5059625;28;20025;-65
2022/06/05 13:51:25;;;;;;;7.65;5.05;;;;;;;;;;5059950;28;20041;-65
2022/06/05 13:54:25;;;;;;;4.75;4.13;;;;;;;;;;5061724;28;20044;-65
2022/06/05 13:56:59;;;;;;;5.45;3.90;;;;;;;;;;5056617;28;20545;-65
2022/06/05 13:59:39;;;;;;;8.32;4.75;;;;;;;;;;5057977;28;20067;-66
2022/06/05 14:02:09;;;;;;;6.55;4.40;;;;;;;;;;5058407;28;20033;-65
2022/06/05 14:04:52;;;;;;;6.63;4.32;;;;;;;;;;5064059;28;20040;-66
2022/06/05 14:07:19;;;;;;;6.93;5.05;;;;;;;;;;5061024;28;20418;-65
2022/06/05 14:09:51;;;;;;;6.60;5.03;;;;;;;;;;5059307;28;20685;-66
2022/06/05 14:12:22;;;;;;;6.47;5.65;;;;;;;;;;5061525;28;20036;-66
2022/06/05 14:14:48;;;;;;;7.57;5.70;;;;;;;;;;5058641;28;20040;-65
2022/06/05 14:17:34;;;;;;;7.90;5.82;;;;;;;;;;5058634;28;20288;-65
2022/06/05 14:20:14;;;;;;;11.35;7.70;;;;;;;;;;5064674;28;20040;-65
2022/06/05 14:22:53;;;;;;;13.13;8.55;;;;;;;;;;5055005;28;20040;-65
2022/06/05 14:25:35;;;;;;;13.07;8.98;;;;;;;;;;5056702;28;20535;-65
2022/06/05 14:28:05;;;;;;;13.63;9.43;;;;;;;;;;5057774;28;20227;-65
2022/06/05 14:30:33;;;;;;;16.88;9.65;;;;;;;;;;5057847;28;20060;-65
2022/06/05 14:33:05;;;;;;;16.42;10.68;;;;;;;;;;5056072;28;20037;-65
2022/06/05 14:35:36;;;;;;;19.02;12.10;;;;;;;;;;5057681;28;20615;-65
2022/06/05 14:38:13;;;;;;;22.25;12.73;;;;;;;;;;5059197;28;20140;-66
2022/06/05 14:40:54;;;;;;;22.30;13.60;;;;;;;;;;5059289;28;20037;-66
2022/06/05 14:43:57;;;;;;;20.10;12.48;;;;;;;;;;5057722;28;20047;-65
2022/06/05 14:46:34;;;;;;;23.67;14.38;;;;;;;;;;5063347;28;20135;-66
2022/06/05 14:49:19;;;;;;;25.05;14.82;;;;;;;;;;5058185;28;20521;-67
2022/06/05 14:52:13;;;;;;;26.35;15.18;;;;;;;;;;5061304;28;20036;-66
2022/06/05 14:57:51;;;;;;;25.10;15.65;;;;;;;;;;5064647;28;20125;-66
2022/06/05 15:00:25;;;;;;;25.13;15.90;;;;;;;;;;5066102;28;20092;-65
2022/06/05 15:03:06;;;;;;;23.77;15.45;;;;;;;;;;5063139;28;20465;-66
2022/06/05 15:05:35;;;;;;;25.85;16.65;;;;;;;;;;5059283;28;20544;-66
2022/06/05 15:08:15;;;;;;;26.45;16.63;;;;;;;;;;5055099;28;20041;-66
2022/06/05 15:10:45;;;;;;;29.20;17.25;;;;;;;;;;5061116;28;20051;-67
2022/06/05 15:13:17;;;;;;;27.73;17.52;;;;;;;;;;5065702;28;20029;-66
2022/06/05 15:15:54;;;;;;;26.45;17.08;;;;;;;;;;5062200;28;20028;-66